createdAt,value
2018-04-25T00:00:11.394Z,15.20
2018-04-25T00:01:16.853Z,14.07
2018-04-25T00:02:21.971Z,13.30
2018-04-25T00:03:27.748Z,14.07
2018-04-25T00:04:33.519Z,14.13
2018-04-25T00:05:40.049Z,14.32
2018-04-25T00:06:45.843Z,14.73
2018-04-25T00:07:50.941Z,15.52
2018-04-25T00:08:56.563Z,14.63
2018-04-25T00:10:02.330Z,14.10
2018-04-25T00:11:08.533Z,13.90
2018-04-25T00:12:14.035Z,16.00
2018-04-25T00:13:19.475Z,14.85
2018-04-25T00:14:24.601Z,16.45
2018-04-25T00:15:30.030Z,16.00
2018-04-25T00:16:35.156Z,17.65
2018-04-25T00:17:40.616Z,15.95
2018-04-25T00:18:46.417Z,16.17
2018-04-25T00:19:52.951Z,16.10
2018-04-25T00:20:58.731Z,15.68
2018-04-25T00:22:04.504Z,15.00
2018-04-25T00:23:10.303Z,14.95
2018-04-25T00:24:16.072Z,15.07
2018-04-25T00:25:21.382Z,15.98
2018-04-25T00:26:27.162Z,14.93
2018-04-25T00:27:32.928Z,15.63
2018-04-25T00:28:38.718Z,15.23
2018-04-25T00:29:44.487Z,14.32
2018-04-25T00:30:49.585Z,15.95
2018-04-25T00:31:55.359Z,15.93
2018-04-25T00:33:01.128Z,14.60
2018-04-25T00:34:07.213Z,15.35
2018-04-25T00:35:13.003Z,14.15
2018-04-25T00:36:18.771Z,14.15
2018-04-25T00:37:25.295Z,14.60
2018-04-25T00:38:31.064Z,13.32
2018-04-25T00:39:37.623Z,13.18
2018-04-25T00:40:43.402Z,14.15
2018-04-25T00:41:48.271Z,12.43
2018-04-25T00:42:53.400Z,12.50
2018-04-25T00:43:58.511Z,12.68
2018-04-25T00:45:03.645Z,12.18
2018-04-25T00:46:08.735Z,11.23
2018-04-25T00:47:13.845Z,12.70
2018-04-25T00:48:19.712Z,11.77
2018-04-25T00:49:24.834Z,12.60
2018-04-25T00:50:29.961Z,11.50
2018-04-25T00:51:35.076Z,11.52
2018-04-25T00:52:40.184Z,10.65
2018-04-25T00:53:46.375Z,10.57
2018-04-25T00:54:51.873Z,9.90
2018-04-25T00:55:57.771Z,11.05
2018-04-25T00:57:02.884Z,10.18
2018-04-25T00:58:08.001Z,10.50
2018-04-25T00:59:13.126Z,11.15
2018-04-25T01:00:18.227Z,10.10
2018-04-25T01:01:24.107Z,9.50
2018-04-25T01:02:29.543Z,9.85
2018-04-25T01:03:34.645Z,9.57
2018-04-25T01:04:39.770Z,9.50
2018-04-25T01:05:44.629Z,9.15
2018-04-25T01:06:49.748Z,8.63
2018-04-25T01:07:54.832Z,9.00
2018-04-25T01:09:00.685Z,8.05
2018-04-25T01:10:06.863Z,8.93
2018-04-25T01:11:11.727Z,7.60
2018-04-25T01:12:17.150Z,7.87
2018-04-25T01:13:22.223Z,7.93
2018-04-25T01:14:27.639Z,7.75
2018-04-25T01:15:33.253Z,7.05
2018-04-25T01:16:38.363Z,6.95
2018-04-25T01:17:43.475Z,7.82
2018-04-25T01:18:48.333Z,7.55
2018-04-25T01:19:53.447Z,6.30
2018-04-25T01:20:58.291Z,6.28
2018-04-25T01:22:03.383Z,6.43
2018-04-25T01:23:09.455Z,6.97
2018-04-25T01:24:14.675Z,6.40
2018-04-25T01:25:39.640Z,6.57
2018-04-25T01:26:44.480Z,6.90
2018-04-25T01:27:53.341Z,6.60
2018-04-25T01:29:01.007Z,6.25
2018-04-25T01:30:06.657Z,6.05
2018-04-25T01:32:50.777Z,5.70
2018-04-25T01:34:02.283Z,5.78
2018-04-25T01:35:08.134Z,6.28
2018-04-25T01:36:27.584Z,6.00
2018-04-25T01:37:50.862Z,5.62
2018-04-25T01:38:56.032Z,6.15
2018-04-25T01:40:16.717Z,7.40
2018-04-25T01:41:21.554Z,6.70
2018-04-25T01:44:25.092Z,6.35
2018-04-25T01:47:37.138Z,6.57
2018-04-25T01:50:38.095Z,6.47
2018-04-25T01:52:01.719Z,7.50
2018-04-25T01:53:24.387Z,6.53
2018-04-25T01:54:47.100Z,7.50
2018-04-25T01:56:09.757Z,6.30
2018-04-25T01:57:32.446Z,6.22
2018-04-25T01:58:55.122Z,6.75
2018-04-25T02:00:17.834Z,7.55
2018-04-25T02:01:21.907Z,8.02
2018-04-25T02:02:26.727Z,7.70
2018-04-25T02:03:50.199Z,7.37
2018-04-25T02:04:56.725Z,7.75
2018-04-25T02:06:01.588Z,7.47
2018-04-25T02:07:07.385Z,7.93
2018-04-25T02:08:13.135Z,7.03
2018-04-25T02:09:18.936Z,7.87
2018-04-25T02:10:24.755Z,8.32
2018-04-25T02:11:30.266Z,7.03
2018-04-25T02:12:36.803Z,8.32
2018-04-25T02:13:42.224Z,8.60
2018-04-25T02:14:47.743Z,8.95
2018-04-25T02:15:53.504Z,8.15
2018-04-25T02:16:59.248Z,7.35
2018-04-25T02:18:05.026Z,8.18
2018-04-25T02:19:11.541Z,7.80
2018-04-25T02:20:17.287Z,8.60
2018-04-25T02:21:23.035Z,8.18
2018-04-25T02:22:29.642Z,9.43
2018-04-25T02:23:36.174Z,8.15
2018-04-25T02:24:42.273Z,8.90
2018-04-25T02:25:48.040Z,9.40
2018-04-25T02:26:53.788Z,8.93
2018-04-25T02:27:59.543Z,9.43
2018-04-25T02:29:05.319Z,8.85
2018-04-25T02:30:11.096Z,9.30
2018-04-25T02:31:16.877Z,8.93
2018-04-25T02:32:22.737Z,8.15
2018-04-25T02:33:29.274Z,7.93
2018-04-25T02:34:35.039Z,7.47
2018-04-25T02:35:41.564Z,9.15
2018-04-25T02:36:47.342Z,8.10
2018-04-25T02:37:53.624Z,8.50
2018-04-25T02:38:59.389Z,9.05
2018-04-25T02:40:04.878Z,9.10
2018-04-25T02:41:11.437Z,9.07
2018-04-25T02:42:17.967Z,7.87
2018-04-25T02:43:23.716Z,8.98
2018-04-25T02:44:29.477Z,8.55
2018-04-25T02:45:36.011Z,8.57
2018-04-25T02:46:41.763Z,8.00
2018-04-25T02:47:47.522Z,8.32
2018-04-25T02:48:54.088Z,9.07
2018-04-25T02:49:59.840Z,8.25
2018-04-25T02:51:05.722Z,9.20
2018-04-25T02:52:11.479Z,8.05
2018-04-25T02:53:17.307Z,7.70
2018-04-25T02:54:23.063Z,7.93
2018-04-25T02:55:28.815Z,8.70
2018-04-25T02:56:34.619Z,8.68
2018-04-25T02:57:40.442Z,8.40
2018-04-25T02:58:45.987Z,8.35
2018-04-25T02:59:51.403Z,8.48
2018-04-25T03:00:57.150Z,8.43
2018-04-25T03:02:02.919Z,8.35
2018-04-25T03:03:08.664Z,7.95
2018-04-25T03:04:14.424Z,8.88
2018-04-25T03:05:20.171Z,8.20
2018-04-25T03:06:25.593Z,9.10
2018-04-25T03:07:31.369Z,8.23
2018-04-25T03:08:37.897Z,7.95
2018-04-25T03:09:43.652Z,8.05
2018-04-25T03:10:49.421Z,7.82
2018-04-25T03:11:55.179Z,7.45
2018-04-25T03:13:00.984Z,7.25
2018-04-25T03:14:07.515Z,6.80
2018-04-25T03:15:13.278Z,7.18
2018-04-25T03:16:18.817Z,7.25
2018-04-25T03:17:24.636Z,7.70
2018-04-25T03:18:30.407Z,6.95
2018-04-25T03:19:36.988Z,6.80
2018-04-25T03:20:43.503Z,6.90
2018-04-25T03:21:50.030Z,7.10
2018-04-25T03:22:55.796Z,7.50
2018-04-25T03:24:01.569Z,6.80
2018-04-25T03:25:07.320Z,7.22
2018-04-25T03:26:13.840Z,6.50
2018-04-25T03:27:19.593Z,7.30
2018-04-25T03:28:25.364Z,6.55
2018-04-25T03:29:31.899Z,6.55
2018-04-25T03:30:38.423Z,7.30
2018-04-25T03:31:44.172Z,6.75
2018-04-25T03:32:49.939Z,7.05
2018-04-25T03:33:55.716Z,6.57
2018-04-25T03:35:02.245Z,6.78
2018-04-25T03:36:08.018Z,6.20
2018-04-25T03:37:14.577Z,6.47
2018-04-25T03:38:21.092Z,6.95
2018-04-25T03:39:26.863Z,6.00
2018-04-25T03:40:33.403Z,6.18
2018-04-25T03:41:39.152Z,6.05
2018-04-25T03:42:46.408Z,6.65
2018-04-25T03:43:52.151Z,5.90
2018-04-25T03:44:57.939Z,6.30
2018-04-25T03:46:04.480Z,6.53
2018-04-25T03:47:11.002Z,5.82
2018-04-25T03:48:16.768Z,5.95
2018-04-25T03:49:22.514Z,5.78
2018-04-25T03:50:28.287Z,5.78
2018-04-25T03:51:34.077Z,5.45
2018-04-25T03:52:40.052Z,6.10
2018-04-25T03:53:46.580Z,5.43
2018-04-25T03:54:52.327Z,5.43
2018-04-25T03:55:58.097Z,5.90
2018-04-25T03:57:03.880Z,5.87
2018-04-25T03:58:09.651Z,5.93
2018-04-25T03:59:15.449Z,5.90
2018-04-25T04:00:21.370Z,6.22
2018-04-25T04:01:27.923Z,5.95
2018-04-25T04:02:33.699Z,6.05
2018-04-25T04:03:39.447Z,6.68
2018-04-25T04:04:45.206Z,6.00
2018-04-25T04:05:50.956Z,5.60
2018-04-25T04:06:56.478Z,5.45
2018-04-25T04:08:02.252Z,5.90
2018-04-25T04:09:08.008Z,5.90
2018-04-25T04:10:14.543Z,6.15
2018-04-25T04:11:20.054Z,5.85
2018-04-25T04:12:25.910Z,5.68
2018-04-25T04:13:31.690Z,6.07
2018-04-25T04:14:38.228Z,6.00
2018-04-25T04:15:44.031Z,6.00
2018-04-25T04:16:49.783Z,5.95
2018-04-25T04:17:55.539Z,6.15
2018-04-25T04:19:01.316Z,6.55
2018-04-25T04:20:07.851Z,6.10
2018-04-25T04:21:13.662Z,5.82
2018-04-25T04:22:19.439Z,5.25
2018-04-25T04:23:25.192Z,5.85
2018-04-25T04:24:32.383Z,5.93
2018-04-25T04:25:38.295Z,5.75
2018-04-25T04:26:44.079Z,5.32
2018-04-25T04:27:50.691Z,5.25
2018-04-25T04:28:56.450Z,5.65
2018-04-25T04:30:03.031Z,5.10
2018-04-25T04:31:09.547Z,5.45
2018-04-25T04:32:15.416Z,5.78
2018-04-25T04:33:21.167Z,5.60
2018-04-25T04:34:26.693Z,5.18
2018-04-25T04:35:32.466Z,5.22
2018-04-25T04:36:39.003Z,5.90
2018-04-25T04:37:44.751Z,6.35
2018-04-25T04:38:51.033Z,5.45
2018-04-25T04:39:56.798Z,5.65
2018-04-25T04:41:02.568Z,5.95
2018-04-25T04:42:09.880Z,5.20
2018-04-25T04:43:16.459Z,6.25
2018-04-25T04:44:22.387Z,6.22
2018-04-25T04:45:28.904Z,5.70
2018-04-25T04:46:34.679Z,5.20
2018-04-25T04:47:41.216Z,5.15
2018-04-25T04:48:47.090Z,5.72
2018-04-25T04:49:53.612Z,5.95
2018-04-25T04:50:59.822Z,5.72
2018-04-25T04:52:05.601Z,5.47
2018-04-25T04:53:11.360Z,4.97
2018-04-25T04:54:17.095Z,6.87
2018-04-25T04:55:22.864Z,4.45
2018-04-25T04:56:29.416Z,5.55
2018-04-25T04:57:35.979Z,5.57
2018-04-25T04:58:42.571Z,5.00
2018-04-25T04:59:48.371Z,5.85
2018-04-25T05:00:54.329Z,5.87
2018-04-25T05:02:00.849Z,5.40
2018-04-25T05:03:06.409Z,5.68
2018-04-25T05:04:12.170Z,5.22
2018-04-25T05:05:18.725Z,4.80
2018-04-25T05:06:25.309Z,5.40
2018-04-25T05:07:31.055Z,5.28
2018-04-25T05:08:36.996Z,5.72
2018-04-25T05:09:42.871Z,5.10
2018-04-25T05:10:48.627Z,5.75
2018-04-25T05:11:54.379Z,4.97
2018-04-25T05:13:00.213Z,5.32
2018-04-25T05:14:05.983Z,5.85
2018-04-25T05:15:11.742Z,5.45
2018-04-25T05:16:18.258Z,5.57
2018-04-25T05:17:24.015Z,5.70
2018-04-25T05:18:29.773Z,5.80
2018-04-25T05:19:36.310Z,5.97
2018-04-25T05:20:42.139Z,5.62
2018-04-25T05:21:47.899Z,6.10
2018-04-25T05:22:53.647Z,6.25
2018-04-25T05:23:59.405Z,5.60
2018-04-25T05:25:05.943Z,5.68
2018-04-25T05:26:11.735Z,5.50
2018-04-25T05:27:17.494Z,6.28
2018-04-25T05:28:23.243Z,5.57
2018-04-25T05:29:29.008Z,5.75
2018-04-25T05:30:34.783Z,5.93
2018-04-25T05:31:41.291Z,6.15
2018-04-25T05:32:47.073Z,5.50
2018-04-25T05:33:53.616Z,6.50
2018-04-25T05:34:59.379Z,5.50
2018-04-25T05:36:05.146Z,6.07
2018-04-25T05:37:10.924Z,6.70
2018-04-25T05:38:16.682Z,5.28
2018-04-25T05:39:23.195Z,6.37
2018-04-25T05:40:28.944Z,6.25
2018-04-25T05:41:34.739Z,5.55
2018-04-25T05:42:41.260Z,5.90
2018-04-25T05:43:47.010Z,5.20
2018-04-25T05:44:52.769Z,6.28
2018-04-25T05:45:58.679Z,6.30
2018-04-25T05:47:04.658Z,6.47
2018-04-25T05:48:10.187Z,5.10
2018-04-25T05:49:15.919Z,5.72
2018-04-25T05:50:21.675Z,6.40
2018-04-25T05:51:27.250Z,6.12
2018-04-25T05:52:33.464Z,5.70
2018-04-25T05:53:39.513Z,5.95
2018-04-25T05:54:45.289Z,5.80
2018-04-25T05:55:51.114Z,5.20
2018-04-25T05:56:57.768Z,5.75
2018-04-25T05:58:03.639Z,5.90
2018-04-25T05:59:09.664Z,5.50
2018-04-25T06:00:16.353Z,5.95
2018-04-25T06:01:22.224Z,6.22
2018-04-25T06:02:28.081Z,5.32
2018-04-25T06:03:33.922Z,6.30
2018-04-25T06:04:39.837Z,5.20
2018-04-25T06:05:45.877Z,6.60
2018-04-25T06:06:51.682Z,5.87
2018-04-25T06:07:57.439Z,6.05
2018-04-25T06:09:03.550Z,5.25
2018-04-25T06:10:09.579Z,6.35
2018-04-25T06:11:15.365Z,6.37
2018-04-25T06:12:21.202Z,5.70
2018-04-25T06:13:27.660Z,5.95
2018-04-25T06:14:33.433Z,5.18
2018-04-25T06:15:39.949Z,6.78
2018-04-25T06:16:45.703Z,6.10
2018-04-25T06:17:51.464Z,5.45
2018-04-25T06:18:57.223Z,6.60
2018-04-25T06:20:03.750Z,5.85
2018-04-25T06:21:09.495Z,4.82
2018-04-25T06:22:15.270Z,5.00
2018-04-25T06:23:21.031Z,6.07
2018-04-25T06:24:26.775Z,4.87
2018-04-25T06:25:32.608Z,5.20
2018-04-25T06:26:38.415Z,5.10
2018-04-25T06:27:44.334Z,5.82
2018-04-25T06:28:50.096Z,5.85
2018-04-25T06:29:55.838Z,5.93
2018-04-25T06:31:01.637Z,5.62
2018-04-25T06:32:06.719Z,5.45
2018-04-25T06:33:13.246Z,5.95
2018-04-25T06:34:18.996Z,5.70
2018-04-25T06:35:25.143Z,5.65
2018-04-25T06:36:30.849Z,5.40
2018-04-25T06:37:36.616Z,6.10
2018-04-25T06:38:42.364Z,5.10
2018-04-25T06:39:49.626Z,4.78
2018-04-25T06:40:55.602Z,5.57
2018-04-25T06:42:02.148Z,5.32
2018-04-25T06:43:07.908Z,5.90
2018-04-25T06:44:13.735Z,5.80
2018-04-25T06:45:19.631Z,5.70
2018-04-25T06:46:25.385Z,5.68
2018-04-25T06:47:31.161Z,5.60
2018-04-25T06:48:36.915Z,5.43
2018-04-25T06:49:42.673Z,5.70
2018-04-25T06:50:49.184Z,5.45
2018-04-25T06:51:54.990Z,5.25
2018-04-25T06:53:01.515Z,6.40
2018-04-25T06:54:07.262Z,5.93
2018-04-25T06:55:13.006Z,6.65
2018-04-25T06:56:19.528Z,5.90
2018-04-25T06:57:25.284Z,5.85
2018-04-25T06:58:31.070Z,5.95
2018-04-25T06:59:36.815Z,6.18
2018-04-25T07:00:42.574Z,6.53
2018-04-25T07:01:48.325Z,6.80
2018-04-25T07:02:54.085Z,6.57
2018-04-25T07:03:59.869Z,6.37
2018-04-25T07:05:06.385Z,6.55
2018-04-25T07:06:12.126Z,6.15
2018-04-25T07:07:17.891Z,7.15
2018-04-25T07:08:23.639Z,6.37
2018-04-25T07:09:29.415Z,6.85
2018-04-25T07:10:35.191Z,5.50
2018-04-25T07:11:40.997Z,6.22
2018-04-25T07:12:46.775Z,5.95
2018-04-25T07:13:52.327Z,5.90
2018-04-25T07:14:58.090Z,6.25
2018-04-25T07:16:04.672Z,6.00
2018-04-25T07:17:11.187Z,5.90
2018-04-25T07:18:16.948Z,5.78
2018-04-25T07:19:22.695Z,6.50
2018-04-25T07:20:28.464Z,6.53
2018-04-25T07:21:34.211Z,6.28
2018-04-25T07:22:39.957Z,6.60
2018-04-25T07:23:45.910Z,6.28
2018-04-25T07:24:52.373Z,6.32
2018-04-25T07:25:58.151Z,5.82
2018-04-25T07:27:03.901Z,6.10
2018-04-25T07:28:09.666Z,6.85
2018-04-25T07:29:16.186Z,6.78
2018-04-25T07:30:22.230Z,6.25
2018-04-25T07:31:28.011Z,5.75
2018-04-25T07:32:34.533Z,5.60
2018-04-25T07:33:40.092Z,5.80
2018-04-25T07:34:46.599Z,7.10
2018-04-25T07:35:52.353Z,6.15
2018-04-25T07:36:58.143Z,6.30
2018-04-25T07:38:04.668Z,6.12
2018-04-25T07:39:10.423Z,7.07
2018-04-25T07:40:16.173Z,6.70
2018-04-25T07:41:21.915Z,6.30
2018-04-25T07:42:27.693Z,6.15
2018-04-25T07:43:33.439Z,6.72
2018-04-25T07:44:39.176Z,6.62
2018-04-25T07:45:44.676Z,6.57
2018-04-25T07:46:50.642Z,7.37
2018-04-25T07:47:57.517Z,6.85
2018-04-25T07:49:03.258Z,7.62
2018-04-25T07:50:09.007Z,7.10
2018-04-25T07:51:15.524Z,6.70
2018-04-25T07:52:21.281Z,7.30
2018-04-25T07:53:27.279Z,7.00
2018-04-25T07:54:33.020Z,6.90
2018-04-25T07:55:38.771Z,7.30
2018-04-25T07:56:44.531Z,6.22
2018-04-25T07:57:51.787Z,6.65
2018-04-25T07:58:57.563Z,7.22
2018-04-25T08:00:03.383Z,6.72
2018-04-25T08:01:09.131Z,7.30
2018-04-25T08:02:14.883Z,7.25
2018-04-25T08:03:20.631Z,7.40
2018-04-25T08:04:27.928Z,7.43
2018-04-25T08:05:34.439Z,7.18
2018-04-25T08:06:40.199Z,7.80
2018-04-25T08:07:45.943Z,7.30
2018-04-25T08:08:52.225Z,7.15
2018-04-25T08:09:58.777Z,7.20
2018-04-25T08:11:05.309Z,7.15
2018-04-25T08:12:27.881Z,7.35
2018-04-25T08:15:32.630Z,7.60
2018-04-25T08:16:55.293Z,7.15
2018-04-25T08:18:17.891Z,7.40
2018-04-25T08:19:40.660Z,6.35
2018-04-25T08:22:43.459Z,7.45
2018-04-25T08:23:49.273Z,6.95
2018-04-25T08:24:55.942Z,7.75
2018-04-25T08:26:01.687Z,7.25
2018-04-25T08:27:07.481Z,7.35
2018-04-25T08:28:14.007Z,7.60
2018-04-25T08:29:19.762Z,7.70
2018-04-25T08:30:25.512Z,7.57
2018-04-25T08:31:31.288Z,7.78
2018-04-25T08:32:37.845Z,7.15
2018-04-25T08:33:43.599Z,7.57
2018-04-25T08:34:49.429Z,6.70
2018-04-25T08:35:55.955Z,8.55
2018-04-25T08:37:02.991Z,7.18
2018-04-25T08:38:08.764Z,7.00
2018-04-25T08:39:14.554Z,7.00
2018-04-25T08:40:21.032Z,7.72
2018-04-25T08:41:26.792Z,7.15
2018-04-25T08:42:32.535Z,7.40
2018-04-25T08:43:38.334Z,7.15
2018-04-25T08:44:44.277Z,7.37
2018-04-25T08:45:50.141Z,7.62
2018-04-25T08:46:55.891Z,6.68
2018-04-25T08:48:01.643Z,7.20
2018-04-25T08:49:07.419Z,6.65
2018-04-25T08:50:13.186Z,7.07
2018-04-25T08:51:19.695Z,7.20
2018-04-25T08:52:25.451Z,7.03
2018-04-25T08:53:30.866Z,7.32
2018-04-25T08:54:36.668Z,7.05
2018-04-25T08:55:42.412Z,7.47
2018-04-25T08:56:48.198Z,7.85
2018-04-25T08:57:53.968Z,7.57
2018-04-25T08:59:00.482Z,7.22
2018-04-25T09:00:05.929Z,7.50
2018-04-25T09:01:11.678Z,7.68
2018-04-25T09:02:17.195Z,7.18
2018-04-25T09:03:22.952Z,7.60
2018-04-25T09:04:28.821Z,7.22
2018-04-25T09:05:34.599Z,7.62
2018-04-25T09:06:40.353Z,6.85
2018-04-25T09:07:46.114Z,7.20
2018-04-25T09:08:51.911Z,7.43
2018-04-25T09:09:58.428Z,7.72
2018-04-25T09:11:04.216Z,7.05
2018-04-25T09:12:09.961Z,7.37
2018-04-25T09:13:16.025Z,7.82
2018-04-25T09:14:22.144Z,7.10
2018-04-25T09:15:28.446Z,7.40
2018-04-25T09:16:34.562Z,6.62
2018-04-25T09:17:41.078Z,7.70
2018-04-25T09:18:47.369Z,6.97
2018-04-25T09:19:53.904Z,7.07
2018-04-25T09:20:59.655Z,6.55
2018-04-25T09:22:06.445Z,7.03
2018-04-25T09:23:12.423Z,7.12
2018-04-25T09:24:18.189Z,6.45
2018-04-25T09:25:25.443Z,7.00
2018-04-25T09:26:31.191Z,6.35
2018-04-25T09:27:36.772Z,7.40
2018-04-25T09:28:43.275Z,6.60
2018-04-25T09:29:48.709Z,7.05
2018-04-25T09:30:54.457Z,6.65
2018-04-25T09:32:00.230Z,6.82
2018-04-25T09:33:06.775Z,7.00
2018-04-25T09:34:12.528Z,6.55
2018-04-25T09:35:18.279Z,6.75
2018-04-25T09:36:24.022Z,6.85
2018-04-25T09:37:29.795Z,6.20
2018-04-25T09:38:35.568Z,6.70
2018-04-25T09:39:41.422Z,7.07
2018-04-25T09:40:47.182Z,7.18
2018-04-25T09:41:52.932Z,7.40
2018-04-25T09:42:59.463Z,7.07
2018-04-25T09:44:05.270Z,6.15
2018-04-25T09:45:11.037Z,6.20
2018-04-25T09:46:16.787Z,7.20
2018-04-25T09:47:22.560Z,6.35
2018-04-25T09:48:28.327Z,6.37
2018-04-25T09:49:34.859Z,6.40
2018-04-25T09:50:40.385Z,6.72
2018-04-25T09:51:46.176Z,6.78
2018-04-25T09:52:52.526Z,6.28
2018-04-25T09:53:58.278Z,7.72
2018-04-25T09:55:04.050Z,6.70
2018-04-25T09:56:09.839Z,6.32
2018-04-25T09:57:15.604Z,7.18
2018-04-25T09:58:21.417Z,6.20
2018-04-25T09:59:27.971Z,7.28
2018-04-25T10:00:39.801Z,6.70
2018-04-25T10:01:45.354Z,7.40
2018-04-25T10:02:56.877Z,6.87
2018-04-25T10:04:03.438Z,6.95
2018-04-25T10:05:10.143Z,7.32
2018-04-25T10:06:15.928Z,7.20
2018-04-25T10:07:21.789Z,6.70
2018-04-25T10:08:28.365Z,7.00
2018-04-25T10:09:34.564Z,6.95
2018-04-25T10:10:40.575Z,6.85
2018-04-25T10:11:46.751Z,7.00
2018-04-25T10:12:52.628Z,6.10
2018-04-25T10:13:59.318Z,6.75
2018-04-25T10:15:04.757Z,6.12
2018-04-25T10:16:10.544Z,6.25
2018-04-25T10:17:16.439Z,6.82
2018-04-25T10:18:22.345Z,6.75
2018-04-25T10:19:28.135Z,6.32
2018-04-25T10:20:33.924Z,7.03
2018-04-25T10:21:39.684Z,6.40
2018-04-25T10:22:46.251Z,6.37
2018-04-25T10:23:53.110Z,6.15
2018-04-25T10:24:58.935Z,8.52
2018-04-25T10:26:05.654Z,5.87
2018-04-25T10:27:11.483Z,7.05
2018-04-25T10:28:17.622Z,6.00
2018-04-25T10:29:24.540Z,6.47
2018-04-25T10:30:30.551Z,6.03
2018-04-25T10:31:38.273Z,6.30
2018-04-25T10:32:44.448Z,6.53
2018-04-25T10:33:51.760Z,5.57
2018-04-25T10:34:57.529Z,6.00
2018-04-25T10:36:03.272Z,6.35
2018-04-25T10:37:09.367Z,5.45
2018-04-25T10:38:15.939Z,5.10
2018-04-25T10:39:21.755Z,6.07
2018-04-25T10:40:27.562Z,5.07
2018-04-25T10:41:33.658Z,5.12
2018-04-25T10:42:40.237Z,5.53
2018-04-25T10:43:46.620Z,4.87
2018-04-25T10:44:52.577Z,5.22
2018-04-25T10:45:58.040Z,4.72
2018-04-25T10:47:03.830Z,5.32
2018-04-25T10:48:09.608Z,5.70
2018-04-25T10:49:15.377Z,4.40
2018-04-25T10:50:21.211Z,4.97
2018-04-25T10:51:27.007Z,5.60
2018-04-25T10:52:32.803Z,4.80
2018-04-25T10:53:38.626Z,5.37
2018-04-25T10:54:44.438Z,5.12
2018-04-25T10:55:50.272Z,5.53
2018-04-25T10:56:56.048Z,6.05
2018-04-25T10:58:01.795Z,5.05
2018-04-25T10:59:07.634Z,5.35
2018-04-25T11:00:13.387Z,5.28
2018-04-25T11:01:18.956Z,5.25
2018-04-25T11:02:25.321Z,5.03
2018-04-25T11:03:31.214Z,5.28
2018-04-25T11:04:36.823Z,4.62
2018-04-25T11:05:43.542Z,4.97
2018-04-25T11:06:50.605Z,4.50
2018-04-25T11:07:57.185Z,4.93
2018-04-25T11:09:02.714Z,5.05
2018-04-25T11:10:09.293Z,5.45
2018-04-25T11:11:15.816Z,4.70
2018-04-25T11:12:21.668Z,4.35
2018-04-25T11:13:28.936Z,4.50
2018-04-25T11:14:35.675Z,4.18
2018-04-25T11:15:41.439Z,4.60
2018-04-25T11:16:48.014Z,4.35
2018-04-25T11:17:53.796Z,3.47
2018-04-25T11:18:59.559Z,4.10
2018-04-25T11:20:05.310Z,3.62
2018-04-25T11:21:11.061Z,3.55
2018-04-25T11:22:16.815Z,4.22
2018-04-25T11:23:22.668Z,3.78
2018-04-25T11:24:28.426Z,3.42
2018-04-25T11:25:34.944Z,3.28
2018-04-25T11:26:40.491Z,2.87
2018-04-25T11:27:46.251Z,3.80
2018-04-25T11:28:52.035Z,4.03
2018-04-25T11:29:57.792Z,3.65
2018-04-25T11:31:03.550Z,3.40
2018-04-25T11:32:09.343Z,3.90
2018-04-25T11:33:15.947Z,3.55
2018-04-25T11:34:21.936Z,3.30
2018-04-25T11:35:28.699Z,3.40
2018-04-25T11:36:34.531Z,3.60
2018-04-25T11:37:41.100Z,3.20
2018-04-25T11:38:47.799Z,3.10
2018-04-25T11:39:53.593Z,4.05
2018-04-25T11:40:59.560Z,4.45
2018-04-25T11:42:05.585Z,3.35
2018-04-25T11:43:11.617Z,3.17
2018-04-25T11:44:17.726Z,3.17
2018-04-25T11:45:23.537Z,2.37
2018-04-25T11:46:30.150Z,1.80
2018-04-25T11:47:35.972Z,1.50
2018-04-25T11:48:41.523Z,1.48
2018-04-25T11:49:47.067Z,1.83
2018-04-25T11:50:52.855Z,1.60
2018-04-25T11:51:58.660Z,1.10
2018-04-25T11:53:04.475Z,1.95
2018-04-25T11:54:10.627Z,1.02
2018-04-25T11:55:16.723Z,0.90
2018-04-25T11:56:22.525Z,1.02
2018-04-25T11:57:28.267Z,0.90
2018-04-25T11:58:34.030Z,0.90
2018-04-25T11:59:39.844Z,1.25
2018-04-25T12:00:46.835Z,1.00
2018-04-25T12:01:52.763Z,0.95
2018-04-25T12:02:58.522Z,1.23
2018-04-25T12:04:04.424Z,1.00
2018-04-25T12:05:10.167Z,0.80
2018-04-25T12:06:16.699Z,0.90
2018-04-25T12:07:22.496Z,1.10
2018-04-25T12:08:28.313Z,1.00
2018-04-25T12:09:34.093Z,1.20
2018-04-25T12:10:40.584Z,1.00
2018-04-25T12:11:46.335Z,1.00
2018-04-25T12:12:53.884Z,0.90
2018-04-25T12:13:59.801Z,0.90
2018-04-25T12:15:04.891Z,1.05
2018-04-25T12:16:10.769Z,0.82
2018-04-25T12:17:17.536Z,0.98
2018-04-25T12:18:23.351Z,1.08
2018-04-25T12:19:29.045Z,0.80
2018-04-25T12:20:34.934Z,0.90
2018-04-25T12:21:42.215Z,1.00
2018-04-25T12:22:48.175Z,1.42
2018-04-25T12:23:54.731Z,1.30
2018-04-25T12:25:00.586Z,1.37
2018-04-25T12:26:07.164Z,0.88
2018-04-25T12:27:12.937Z,1.12
2018-04-25T12:28:18.696Z,1.10
2018-04-25T12:29:24.475Z,1.40
2018-04-25T12:30:31.175Z,1.00
2018-04-25T12:31:36.935Z,1.10
2018-04-25T12:32:42.699Z,1.10
2018-04-25T12:33:49.047Z,0.90
2018-04-25T12:34:54.846Z,0.85
2018-04-25T12:36:00.646Z,0.90
2018-04-25T12:37:06.965Z,1.93
2018-04-25T12:38:12.729Z,0.80
2018-04-25T12:39:18.503Z,0.88
2018-04-25T12:40:24.333Z,0.90
2018-04-25T12:41:31.859Z,1.60
2018-04-25T12:42:37.759Z,1.10
2018-04-25T12:43:44.295Z,1.00
2018-04-25T12:44:50.843Z,1.30
2018-04-25T12:45:56.623Z,1.20
2018-04-25T12:47:03.144Z,1.30
2018-04-25T12:48:08.893Z,1.30
2018-04-25T12:49:14.663Z,1.80
2018-04-25T12:50:21.191Z,1.40
2018-04-25T12:51:26.981Z,1.37
2018-04-25T12:52:32.736Z,1.40
2018-04-25T12:53:38.494Z,2.50
2018-04-25T12:54:44.266Z,1.98
2018-04-25T12:55:50.798Z,1.90
2018-04-25T12:56:57.478Z,2.70
2018-04-25T12:58:03.233Z,2.50
2018-04-25T12:59:08.997Z,3.05
2018-04-25T13:00:15.350Z,2.55
2018-04-25T13:01:21.871Z,4.00
2018-04-25T13:02:27.661Z,3.70
2018-04-25T13:03:34.205Z,3.85
2018-04-25T13:04:41.504Z,3.72
2018-04-25T13:05:47.403Z,3.37
2018-04-25T13:06:53.396Z,4.25
2018-04-25T13:07:59.970Z,4.60
2018-04-25T13:09:04.889Z,4.55
2018-04-25T13:10:10.806Z,4.90
2018-04-25T13:11:17.352Z,4.32
2018-04-25T13:12:23.126Z,5.07
2018-04-25T13:13:29.667Z,4.18
2018-04-25T13:14:36.212Z,4.60
2018-04-25T13:15:41.999Z,5.45
2018-04-25T13:16:48.519Z,5.37
2018-04-25T13:17:54.367Z,3.62
2018-04-25T13:19:00.151Z,4.35
2018-04-25T13:20:06.816Z,3.95
2018-04-25T13:21:12.640Z,3.72
2018-04-25T13:22:19.170Z,4.30
2018-04-25T13:23:25.068Z,3.78
2018-04-25T13:24:31.786Z,5.10
2018-04-25T13:25:37.557Z,4.72
2018-04-25T13:26:44.534Z,4.28
2018-04-25T13:27:50.375Z,3.70
2018-04-25T13:28:56.000Z,4.57
2018-04-25T13:30:01.943Z,4.00
2018-04-25T13:31:08.480Z,3.70
2018-04-25T13:32:15.484Z,3.70
2018-04-25T13:33:21.263Z,4.07
2018-04-25T13:34:27.009Z,5.00
2018-04-25T13:35:32.778Z,2.67
2018-04-25T13:36:40.646Z,3.75
2018-04-25T13:37:46.463Z,4.25
2018-04-25T13:38:52.587Z,3.95
2018-04-25T13:39:59.107Z,4.00
2018-04-25T13:41:04.898Z,3.78
2018-04-25T13:42:10.717Z,3.83
2018-04-25T13:43:16.803Z,3.80
2018-04-25T13:44:22.712Z,3.90
2018-04-25T13:45:30.018Z,4.30
2018-04-25T13:46:35.401Z,3.87
2018-04-25T13:47:41.162Z,3.95
2018-04-25T13:48:47.148Z,4.40
2018-04-25T13:49:52.907Z,4.18
2018-04-25T13:50:58.508Z,4.25
2018-04-25T13:52:05.054Z,2.85
2018-04-25T13:53:10.608Z,3.62
2018-04-25T13:54:17.140Z,4.07
2018-04-25T13:55:22.898Z,4.25
2018-04-25T13:56:29.451Z,3.90
2018-04-25T13:57:36.744Z,3.80
2018-04-25T13:58:43.270Z,3.42
2018-04-25T13:59:49.033Z,4.12
2018-04-25T14:00:54.856Z,4.40
2018-04-25T14:02:01.016Z,4.40
2018-04-25T14:03:07.567Z,3.47
2018-04-25T14:04:13.327Z,4.00
2018-04-25T14:05:19.875Z,4.65
2018-04-25T14:06:25.965Z,4.12
2018-04-25T14:07:31.760Z,4.53
2018-04-25T14:08:37.713Z,3.90
2018-04-25T14:09:43.488Z,3.42
2018-04-25T14:10:49.090Z,3.30
2018-04-25T14:11:55.433Z,3.08
2018-04-25T14:13:01.368Z,3.20
2018-04-25T14:14:07.486Z,2.78
2018-04-25T14:15:13.520Z,1.87
2018-04-25T14:16:19.760Z,2.12
2018-04-25T14:17:26.435Z,2.05
2018-04-25T14:18:32.439Z,2.05
2018-04-25T14:19:38.246Z,1.95
2018-04-25T14:20:44.043Z,1.67
2018-04-25T14:21:49.824Z,2.03
2018-04-25T14:22:55.627Z,1.77
2018-04-25T14:24:02.147Z,1.45
2018-04-25T14:25:07.929Z,1.80
2018-04-25T14:26:13.700Z,1.80
2018-04-25T14:27:19.475Z,1.98
2018-04-25T14:28:25.232Z,1.80
2018-04-25T14:29:30.993Z,2.08
2018-04-25T14:30:38.283Z,1.70
2018-04-25T14:31:44.111Z,1.90
2018-04-25T14:32:49.867Z,2.08
2018-04-25T14:33:57.136Z,2.10
2018-04-25T14:35:02.933Z,2.22
2018-04-25T14:36:08.759Z,2.12
2018-04-25T14:37:14.553Z,1.90
2018-04-25T14:38:20.309Z,1.98
2018-04-25T14:39:27.397Z,1.87
2018-04-25T14:40:33.947Z,2.55
2018-04-25T14:41:40.737Z,2.20
2018-04-25T14:42:47.362Z,2.92
2018-04-25T14:43:53.352Z,2.30
2018-04-25T14:44:59.194Z,2.65
2018-04-25T14:46:05.652Z,2.65
2018-04-25T14:47:11.715Z,2.50
2018-04-25T14:48:17.781Z,2.85
2018-04-25T14:49:25.540Z,2.22
2018-04-25T14:50:31.795Z,3.08
2018-04-25T14:51:37.750Z,3.47